Ruff, Washington
Current Conditions -  °F | °C
As of 9:52 AM on Saturday 25 Oct 2014 (Local Time) from KMWH Reporting Station
Broken Clouds Broken Clouds  
Wind Chill: 51°   Ceiling: 12000
Heat Index: 51°   Visibility: 10mi
Dew Point: 45°   Wind: 7mph
Humidity: 80%   Direction: 360°N
Pressure: 29.63"   Gusts: NA
Location:  47.3463°N, 119.014°W
Report Text: KMWH 251652Z 36006KT 10SM SCT018 BKN120 11/07 A2963 RMK AO2 SLP036 T01060072
Loading
Personal Weather Stations






























Interactive Weather Map
Tropical Storm Tracking
New forecast layout! Learn more

10-Day Weather Forecast

Advertisements
Track Severe Weather on mobile